Time,TemperatureF,DewpointF,PressureIn,WindDirection,WindDirectionDegrees,WindSpeedMPH,WindSpeedGustMPH,Humidity,HourlyPrecipIn,Conditions,Clouds,dailyrainin,SoftwareType,DateUTC
2013-01-21 00:00:00,32.7,17.9,29.96,WNW,292,1.0,4.0,54,0.00,,SKC,0.00,VWS V14.01,2013-01-21 05:00:00,
2013-01-21 00:10:00,32.4,18.0,29.97,WNW,292,0.0,4.0,55,0.00,,SKC,0.00,VWS V14.01,2013-01-21 05:10:00,
2013-01-21 00:20:00,32.1,18.2,29.97,West,270,1.0,6.0,56,0.00,,SKC,0.00,VWS V14.01,2013-01-21 05:20:00,
2013-01-21 00:30:00,31.8,17.9,29.97,WSW,248,1.0,7.0,56,0.00,,SKC,0.00,VWS V14.01,2013-01-21 05:30:00,
2013-01-21 00:40:00,31.6,17.3,29.97,SW,225,1.0,6.0,55,0.00,,SKC,0.00,VWS V14.01,2013-01-21 05:40:00,
2013-01-21 00:50:00,31.5,17.6,29.98,WSW,248,0.0,5.0,56,0.00,,SKC,0.00,VWS V14.01,2013-01-21 05:50:00,
2013-01-21 01:00:00,31.2,16.5,29.98,WSW,248,1.0,4.0,54,0.00,,SKC,0.00,VWS V14.01,2013-01-21 06:00:00,
2013-01-21 01:10:00,30.9,15.8,29.98,WSW,248,1.0,5.0,53,0.00,,SKC,0.00,VWS V14.01,2013-01-21 06:10:00,
2013-01-21 01:20:00,30.7,16.0,29.99,SW,225,1.0,4.0,54,0.00,,SKC,0.00,VWS V14.01,2013-01-21 06:20:00,
2013-01-21 01:30:00,30.6,15.9,29.99,West,270,2.0,6.0,54,0.00,,SKC,0.00,VWS V14.01,2013-01-21 06:30:00,
2013-01-21 01:40:00,30.4,15.8,29.99,ESE,112,1.0,5.0,54,0.00,,SKC,0.00,VWS V14.01,2013-01-21 06:40:00,
2013-01-21 01:50:00,30.1,15.5,30.00,East,90,1.0,6.0,54,0.00,,SKC,0.00,VWS V14.01,2013-01-21 06:50:00,
2013-01-21 02:00:00,30.0,15.8,30.01,WSW,248,0.0,3.0,55,0.00,,SKC,0.00,VWS V14.01,2013-01-21 07:00:00,
2013-01-21 02:10:00,29.8,15.6,30.01,West,270,0.0,6.0,55,0.00,,SKC,0.00,VWS V14.01,2013-01-21 07:10:00,
2013-01-21 02:20:00,29.5,16.2,30.02,West,270,0.0,4.0,57,0.00,,SKC,0.00,VWS V14.01,2013-01-21 07:20:00,
2013-01-21 02:30:00,29.4,16.1,30.02,West,270,1.0,6.0,57,0.00,,SKC,0.00,VWS V14.01,2013-01-21 07:30:00,
2013-01-21 02:40:00,29.3,14.7,30.02,West,270,1.0,7.0,54,0.00,,SKC,0.00,VWS V14.01,2013-01-21 07:40:00,
2013-01-21 02:50:00,29.1,11.9,30.02,SW,225,2.0,7.0,48,0.00,,SKC,0.00,VWS V14.01,2013-01-21 07:50:00,
2013-01-21 03:00:00,29.1,11.9,30.02,WSW,248,1.0,5.0,48,0.00,,SKC,0.00,VWS V14.01,2013-01-21 08:00:00,
2013-01-21 03:10:00,29.1,11.9,30.03,West,270,1.0,5.0,48,0.00,,SKC,0.00,VWS V14.01,2013-01-21 08:10:00,
2013-01-21 03:20:00,28.8,12.1,30.03,West,270,1.0,6.0,49,0.00,,SKC,0.00,VWS V14.01,2013-01-21 08:20:00,
2013-01-21 03:30:00,28.7,12.0,30.03,West,270,0.0,3.0,49,0.00,,SKC,0.00,VWS V14.01,2013-01-21 08:30:00,
2013-01-21 03:40:00,28.5,11.8,30.03,WSW,248,0.0,4.0,49,0.00,,SKC,0.00,VWS V14.01,2013-01-21 08:40:00,
2013-01-21 03:50:00,28.4,12.1,30.03,WSW,248,0.0,3.0,50,0.00,,SKC,0.00,VWS V14.01,2013-01-21 08:50:00,
2013-01-21 04:00:00,28.2,12.0,30.03,WSW,248,0.0,2.0,50,0.00,,SKC,0.00,VWS V14.01,2013-01-21 09:00:00,
2013-01-21 04:10:00,28.2,12.4,30.03,WSW,248,0.0,3.0,51,0.00,,SKC,0.00,VWS V14.01,2013-01-21 09:10:00,
2013-01-21 04:20:00,28.1,12.8,30.04,WSW,248,0.0,2.0,52,0.00,,SKC,0.00,VWS V14.01,2013-01-21 09:20:00,
2013-01-21 04:30:00,27.9,12.6,30.04,WSW,248,0.0,3.0,52,0.00,,SKC,0.00,VWS V14.01,2013-01-21 09:30:00,
2013-01-21 04:40:00,27.8,12.9,30.04,SSW,202,0.0,3.0,53,0.00,,SKC,0.00,VWS V14.01,2013-01-21 09:40:00,
2013-01-21 04:50:00,27.6,12.7,30.04,SSW,202,0.0,2.0,53,0.00,,SKC,0.00,VWS V14.01,2013-01-21 09:50:00,
2013-01-21 05:00:00,27.6,13.1,30.04,SSW,202,0.0,3.0,54,0.00,,SKC,0.00,VWS V14.01,2013-01-21 10:00:00,
2013-01-21 05:10:00,27.5,13.5,30.04,SSW,202,0.0,2.0,55,0.00,,SKC,0.00,VWS V14.01,2013-01-21 10:10:00,
2013-01-21 05:20:00,27.5,13.5,30.04,SSW,202,0.0,0.0,55,0.00,,SKC,0.00,VWS V14.01,2013-01-21 10:20:00,
2013-01-21 05:30:00,27.3,13.7,30.04,SSW,202,0.0,4.0,56,0.00,,SKC,0.00,VWS V14.01,2013-01-21 10:30:00,
2013-01-21 05:40:00,27.3,13.7,30.04,SSW,202,0.0,3.0,56,0.00,,SKC,0.00,VWS V14.01,2013-01-21 10:40:00,
2013-01-21 05:50:00,27.3,13.7,30.04,SSW,202,0.0,2.0,56,0.00,,SKC,0.00,VWS V14.01,2013-01-21 10:50:00,
2013-01-21 06:00:00,27.3,13.7,30.05,SSW,202,0.0,2.0,56,0.00,,SKC,0.00,VWS V14.01,2013-01-21 11:00:00,
2013-01-21 06:10:00,27.3,13.7,30.05,SSW,202,0.0,4.0,56,0.00,,SKC,0.00,VWS V14.01,2013-01-21 11:10:00,
2013-01-21 06:20:00,27.3,13.7,30.06,SSW,202,0.0,0.0,56,0.00,,SKC,0.00,VWS V14.01,2013-01-21 11:20:00,
2013-01-21 06:30:00,27.2,14.0,30.06,SSW,202,0.0,1.0,57,0.00,,SKC,0.00,VWS V14.01,2013-01-21 11:30:00,
2013-01-21 06:40:00,26.9,14.1,30.07,SSW,202,0.0,0.0,58,0.00,,SKC,0.00,VWS V14.01,2013-01-21 11:40:00,
2013-01-21 06:50:00,26.7,14.3,30.07,SSW,202,0.0,0.0,59,0.00,,SKC,0.00,VWS V14.01,2013-01-21 11:50:00,
2013-01-21 07:00:00,26.4,14.0,30.07,SSW,202,0.0,0.0,59,0.00,,SKC,0.00,VWS V14.01,2013-01-21 12:00:00,
2013-01-21 07:10:00,26.3,14.3,30.08,SSW,202,0.0,0.0,60,0.00,,SKC,0.00,VWS V14.01,2013-01-21 12:10:00,
2013-01-21 07:20:00,26.1,14.1,30.08,SSW,202,0.0,0.0,60,0.00,,SKC,0.00,VWS V14.01,2013-01-21 12:20:00,
2013-01-21 07:30:00,25.8,14.2,30.09,SSW,202,0.0,0.0,61,0.00,,SKC,0.00,VWS V14.01,2013-01-21 12:30:00,
2013-01-21 07:40:00,25.7,14.5,30.08,SSW,202,0.0,0.0,62,0.00,,SKC,0.00,VWS V14.01,2013-01-21 12:40:00,
2013-01-21 07:50:00,25.4,14.6,30.08,SSW,202,0.0,0.0,63,0.00,,SKC,0.00,VWS V14.01,2013-01-21 12:50:00,
2013-01-21 08:00:00,25.4,14.2,30.08,SSW,202,0.0,0.0,62,0.00,,SKC,0.00,VWS V14.01,2013-01-21 13:00:00,
2013-01-21 08:10:00,25.6,13.7,30.08,SSW,202,0.0,1.0,60,0.00,,SKC,0.00,VWS V14.01,2013-01-21 13:10:00,
2013-01-21 08:20:00,25.7,13.4,30.08,SSW,202,0.0,0.0,59,0.00,,SKC,0.00,VWS V14.01,2013-01-21 13:20:00,
2013-01-21 08:30:00,26.0,12.9,30.08,SSW,202,0.0,0.0,57,0.00,,SKC,0.00,VWS V14.01,2013-01-21 13:30:00,
2013-01-21 08:40:00,26.3,13.1,30.08,SSW,202,0.0,0.0,57,0.00,,SKC,0.00,VWS V14.01,2013-01-21 13:40:00,
2013-01-21 09:03:00,26.9,12.1,30.08,SSW,202,0.0,0.0,53,0.00,,SKC,0.00,VWS V14.01,2013-01-21 14:03:00,
2013-01-21 09:08:00,27.0,12.2,30.08,SSW,202,0.0,1.0,53,0.00,,SKC,0.00,VWS V14.01,2013-01-21 14:08:00,
2013-01-21 09:13:00,27.0,11.7,30.08,SSW,202,0.0,1.0,52,0.00,,SKC,0.00,VWS V14.01,2013-01-21 14:13:00,
2013-01-21 09:18:00,27.3,12.0,30.09,SSW,202,0.0,2.0,52,0.00,,SKC,0.00,VWS V14.01,2013-01-21 14:18:00,
2013-01-21 09:23:00,27.5,11.8,30.08,SSW,202,0.0,2.0,51,0.00,,SKC,0.00,VWS V14.01,2013-01-21 14:23:00,
2013-01-21 09:28:00,27.8,11.1,30.09,SSW,202,0.0,3.0,49,0.00,,SKC,0.00,VWS V14.01,2013-01-21 14:28:00,
2013-01-21 09:34:00,27.9,10.8,30.08,SSW,204,0.0,2.0,48,0.00,,SKC,0.00,VWS V14.01,2013-01-21 14:34:00,
2013-01-21 09:39:00,28.4,10.8,30.09,SSW,204,0.0,2.0,47,0.00,,SKC,0.00,VWS V14.01,2013-01-21 14:39:00,
2013-01-21 09:44:00,29.1,10.4,30.09,SSW,194,2.0,2.0,45,0.00,,SKC,0.00,VWS V14.01,2013-01-21 14:44:00,
2013-01-21 09:49:00,29.3,10.1,30.09,SSW,194,0.0,2.0,44,0.00,,SKC,0.00,VWS V14.01,2013-01-21 14:49:00,
2013-01-21 09:54:00,29.4,10.2,30.09,SSW,194,0.0,1.0,44,0.00,,SKC,0.00,VWS V14.01,2013-01-21 14:54:00,
2013-01-21 09:59:00,29.4,10.2,30.09,SSW,198,0.0,4.0,44,0.00,,SKC,0.00,VWS V14.01,2013-01-21 14:59:00,
2013-01-21 10:04:00,29.5,11.3,30.09,SSW,198,0.0,0.0,46,0.00,,SKC,0.00,VWS V14.01,2013-01-21 15:04:00,
2013-01-21 10:09:00,29.7,10.5,30.09,SSW,198,0.0,1.0,44,0.00,,SKC,0.00,VWS V14.01,2013-01-21 15:09:00,
2013-01-21 10:14:00,30.3,12.0,30.09,SSW,198,0.0,1.0,46,0.00,,SKC,0.00,VWS V14.01,2013-01-21 15:14:00,
2013-01-21 10:19:00,30.6,12.3,30.09,SSW,199,0.0,2.0,46,0.00,,SKC,0.00,VWS V14.01,2013-01-21 15:19:00,
2013-01-21 10:24:00,30.7,11.9,30.08,SSW,210,0.0,3.0,45,0.00,,SKC,0.00,VWS V14.01,2013-01-21 15:24:00,
2013-01-21 10:29:00,30.9,12.6,30.08,SSW,211,0.0,3.0,46,0.00,,SKC,0.00,VWS V14.01,2013-01-21 15:29:00,
2013-01-21 10:34:00,30.9,13.1,30.08,SSW,213,0.0,2.0,47,0.00,,SKC,0.00,VWS V14.01,2013-01-21 15:34:00,
2013-01-21 10:40:00,30.7,11.4,30.08,SSW,196,0.0,2.0,44,0.00,,SKC,0.00,VWS V14.01,2013-01-21 15:40:00,
2013-01-21 10:45:00,31.2,13.3,30.08,SSW,196,0.0,2.0,47,0.00,,SKC,0.00,VWS V14.01,2013-01-21 15:45:00,
2013-01-21 10:50:00,31.5,13.6,30.07,SSW,196,0.0,2.0,47,0.00,,SKC,0.00,VWS V14.01,2013-01-21 15:50:00,
2013-01-21 10:55:00,31.2,12.8,30.07,SSW,196,0.0,1.0,46,0.00,,SKC,0.00,VWS V14.01,2013-01-21 15:55:00,
2013-01-21 11:00:00,31.0,13.1,30.07,SSW,196,0.0,1.0,47,0.00,,SKC,0.00,VWS V14.01,2013-01-21 16:00:00,
2013-01-21 11:05:00,31.5,13.6,30.06,SSW,196,0.0,1.0,47,0.00,,SKC,0.00,VWS V14.01,2013-01-21 16:05:00,
2013-01-21 11:10:00,31.2,12.8,30.06,SSW,203,0.0,2.0,46,0.00,,SKC,0.00,VWS V14.01,2013-01-21 16:10:00,
2013-01-21 11:15:00,31.8,13.9,30.05,SSW,203,0.0,0.0,47,0.00,,SKC,0.00,VWS V14.01,2013-01-21 16:15:00,
2013-01-21 11:20:00,31.5,13.1,30.05,SSW,203,0.0,2.0,46,0.00,,SKC,0.00,VWS V14.01,2013-01-21 16:20:00,
2013-01-21 11:25:00,31.3,14.4,30.05,SSW,203,0.0,1.0,49,0.00,,SKC,0.00,VWS V14.01,2013-01-21 16:25:00,
2013-01-21 11:30:00,31.3,15.3,30.04,SSW,203,0.0,1.0,51,0.00,,SKC,0.00,VWS V14.01,2013-01-21 16:30:00,
2013-01-21 11:35:00,31.5,14.1,30.04,SSW,203,0.0,1.0,48,0.00,,SKC,0.00,VWS V14.01,2013-01-21 16:35:00,
2013-01-21 11:40:00,31.2,14.7,30.04,SSW,203,0.0,1.0,50,0.00,,SKC,0.00,VWS V14.01,2013-01-21 16:40:00,
2013-01-21 11:45:00,31.6,15.6,30.03,SSW,203,0.0,0.0,51,0.00,,SKC,0.00,VWS V14.01,2013-01-21 16:45:00,
2013-01-21 11:50:00,31.6,13.7,30.03,SSW,203,0.0,1.0,47,0.00,,SKC,0.00,VWS V14.01,2013-01-21 16:50:00,
2013-01-21 11:56:00,31.8,15.3,30.02,SSW,203,0.0,2.0,50,0.00,,SKC,0.00,VWS V14.01,2013-01-21 16:56:00,
2013-01-21 12:01:00,32.2,14.7,30.02,SSW,203,0.0,2.0,48,0.00,,SKC,0.00,VWS V14.01,2013-01-21 17:01:00,
2013-01-21 12:06:00,31.8,14.4,30.02,SSW,204,0.0,3.0,48,0.00,,SKC,0.00,VWS V14.01,2013-01-21 17:06:00,
2013-01-21 12:11:00,31.9,16.3,30.01,SSW,204,0.0,3.0,52,0.00,,SKC,0.00,VWS V14.01,2013-01-21 17:11:00,
2013-01-21 12:16:00,31.9,16.3,30.01,SSW,204,0.0,2.0,52,0.00,,SKC,0.00,VWS V14.01,2013-01-21 17:16:00,
2013-01-21 12:21:00,32.2,15.7,30.01,SSW,204,0.0,2.0,50,0.00,,SKC,0.00,VWS V14.01,2013-01-21 17:21:00,
2013-01-21 12:26:00,31.9,15.4,30.00,SSW,204,0.0,1.0,50,0.00,,SKC,0.00,VWS V14.01,2013-01-21 17:26:00,
2013-01-21 12:31:00,31.8,15.8,30.00,SSW,205,0.0,2.0,51,0.00,,SKC,0.00,VWS V14.01,2013-01-21 17:31:00,
2013-01-21 12:36:00,31.8,16.2,29.99,SSW,205,0.0,0.0,52,0.00,,SKC,0.00,VWS V14.01,2013-01-21 17:36:00,
2013-01-21 12:41:00,31.6,16.0,29.99,SSW,205,2.0,2.0,52,0.00,,SKC,0.00,VWS V14.01,2013-01-21 17:41:00,
2013-01-21 12:46:00,31.3,16.2,29.99,SSW,205,0.0,2.0,53,0.00,,SKC,0.00,VWS V14.01,2013-01-21 17:46:00,
2013-01-21 12:51:00,31.2,15.2,29.99,SSW,205,0.0,0.0,51,0.00,,SKC,0.00,VWS V14.01,2013-01-21 17:51:00,
2013-01-21 12:56:00,31.0,15.9,29.98,SSW,205,0.0,2.0,53,0.00,,SKC,0.00,VWS V14.01,2013-01-21 17:56:00,
2013-01-21 13:01:00,31.3,16.2,29.98,SSW,205,0.0,0.0,53,0.00,,SKC,0.00,VWS V14.01,2013-01-21 18:01:00,
2013-01-21 13:06:00,31.5,16.8,29.98,SSW,205,1.0,2.0,54,0.00,,SKC,0.00,VWS V14.01,2013-01-21 18:06:00,
2013-01-21 13:11:00,31.6,16.5,29.98,SSW,205,1.0,2.0,53,0.00,,SKC,0.00,VWS V14.01,2013-01-21 18:11:00,
2013-01-21 13:17:00,31.5,16.8,29.98,SSW,205,0.0,2.0,54,0.00,,SKC,0.00,VWS V14.01,2013-01-21 18:17:00,
2013-01-21 13:22:00,31.6,16.9,29.98,SSW,205,0.0,0.0,54,0.00,,SKC,0.00,VWS V14.01,2013-01-21 18:22:00,
2013-01-21 13:27:00,31.9,17.2,29.98,SSW,205,0.0,1.0,54,0.00,,SKC,0.00,VWS V14.01,2013-01-21 18:27:00,
2013-01-21 13:32:00,31.9,17.2,29.98,SSW,207,0.0,0.0,54,0.00,,SKC,0.00,VWS V14.01,2013-01-21 18:32:00,
2013-01-21 13:37:00,32.1,18.2,29.97,SSW,207,0.0,1.0,56,0.00,,SKC,0.00,VWS V14.01,2013-01-21 18:37:00,
2013-01-21 13:42:00,32.1,18.2,29.97,SSW,207,0.0,0.0,56,0.00,,SKC,0.00,VWS V14.01,2013-01-21 18:42:00,
2013-01-21 13:47:00,32.1,18.6,29.97,SSW,207,0.0,2.0,57,0.00,,SKC,0.00,VWS V14.01,2013-01-21 18:47:00,
2013-01-21 13:53:00,31.9,18.4,29.97,SSW,207,0.0,0.0,57,0.00,,SKC,0.00,VWS V14.01,2013-01-21 18:53:00,
2013-01-21 13:58:00,32.1,19.4,29.97,SSW,209,0.0,2.0,59,0.00,,SKC,0.00,VWS V14.01,2013-01-21 18:58:00,
2013-01-21 14:03:00,31.9,19.6,29.97,SSW,210,0.0,2.0,60,0.00,,SKC,0.00,VWS V14.01,2013-01-21 19:03:00,
2013-01-21 14:08:00,32.1,19.8,29.97,SW,227,0.0,4.0,60,0.00,,SKC,0.00,VWS V14.01,2013-01-21 19:08:00,
2013-01-21 14:13:00,32.1,20.2,29.97,SW,227,0.0,0.0,61,0.00,,SKC,0.00,VWS V14.01,2013-01-21 19:13:00,
2013-01-21 14:18:00,32.1,20.6,29.96,SW,227,0.0,1.0,62,0.00,,SKC,0.00,VWS V14.01,2013-01-21 19:18:00,
2013-01-21 14:23:00,32.2,21.0,29.96,SW,227,0.0,0.0,63,0.00,,SKC,0.00,VWS V14.01,2013-01-21 19:23:00,
2013-01-21 14:28:00,32.2,21.4,29.95,WSW,252,1.0,5.0,64,0.00,,SKC,0.00,VWS V14.01,2013-01-21 19:28:00,
2013-01-21 14:33:00,32.4,22.0,29.95,WSW,255,0.0,0.0,65,0.00,,SKC,0.00,VWS V14.01,2013-01-21 19:33:00,
2013-01-21 14:38:00,32.4,22.3,29.95,WSW,256,0.0,3.0,66,0.00,,SKC,0.00,VWS V14.01,2013-01-21 19:38:00,
2013-01-21 14:43:00,32.2,22.5,29.95,West,265,1.0,5.0,67,0.00,,SKC,0.00,VWS V14.01,2013-01-21 19:43:00,
2013-01-21 14:48:00,32.1,22.8,29.95,West,281,1.0,5.0,68,0.00,,SKC,0.00,VWS V14.01,2013-01-21 19:48:00,
2013-01-21 14:53:00,32.1,23.1,29.95,West,279,1.0,2.0,69,0.00,,SKC,0.00,VWS V14.01,2013-01-21 19:53:00,
2013-01-21 14:59:00,32.1,23.4,29.95,West,279,0.0,3.0,70,0.00,,SKC,0.00,VWS V14.01,2013-01-21 19:59:00,
2013-01-21 15:04:00,31.9,23.6,29.94,West,279,0.0,2.0,71,0.00,,SKC,0.00,VWS V14.01,2013-01-21 20:04:00,
2013-01-21 15:09:00,31.9,23.9,29.94,West,279,1.0,2.0,72,0.00,,SKC,0.00,VWS V14.01,2013-01-21 20:09:00,
2013-01-21 15:14:00,31.9,24.2,29.94,West,279,0.0,1.0,73,0.00,,SKC,0.00,VWS V14.01,2013-01-21 20:14:00,
2013-01-21 15:19:00,31.9,24.6,29.94,West,279,0.0,2.0,74,0.00,,SKC,0.00,VWS V14.01,2013-01-21 20:19:00,
2013-01-21 15:24:00,31.9,24.9,29.94,West,279,0.0,2.0,75,0.00,,SKC,0.00,VWS V14.01,2013-01-21 20:24:00,
2013-01-21 15:29:00,31.9,25.2,29.93,West,279,0.0,2.0,76,0.00,,SKC,0.00,VWS V14.01,2013-01-21 20:29:00,
2013-01-21 15:34:00,31.9,25.2,29.93,West,279,0.0,1.0,76,0.00,,SKC,0.00,VWS V14.01,2013-01-21 20:34:00,
2013-01-21 15:40:00,31.8,25.4,29.93,West,279,0.0,1.0,77,0.00,,SKC,0.00,VWS V14.01,2013-01-21 20:40:00,
2013-01-21 15:45:00,31.8,25.4,29.92,West,279,0.0,2.0,77,0.00,,SKC,0.00,VWS V14.01,2013-01-21 20:45:00,
2013-01-21 15:50:00,31.8,25.7,29.92,West,279,0.0,2.0,78,0.00,,SKC,0.00,VWS V14.01,2013-01-21 20:50:00,
2013-01-21 15:55:00,31.8,25.7,29.92,West,279,0.0,1.0,78,0.00,,SKC,0.00,VWS V14.01,2013-01-21 20:55:00,
2013-01-21 16:00:00,31.8,26.0,29.91,West,278,0.0,3.0,79,0.00,,SKC,0.00,VWS V14.01,2013-01-21 21:00:00,
2013-01-21 16:06:00,31.8,26.0,29.91,West,278,0.0,0.0,79,0.00,,SKC,0.00,VWS V14.01,2013-01-21 21:06:00,
2013-01-21 16:11:00,31.6,25.9,29.91,West,278,0.0,0.0,79,0.00,,SKC,0.00,VWS V14.01,2013-01-21 21:11:00,
2013-01-21 16:16:00,31.6,26.1,29.90,West,278,0.0,1.0,80,0.00,,SKC,0.00,VWS V14.01,2013-01-21 21:16:00,
2013-01-21 16:21:00,31.8,26.4,29.90,West,278,0.0,1.0,80,0.00,,SKC,0.00,VWS V14.01,2013-01-21 21:21:00,
2013-01-21 16:26:00,31.8,26.4,29.90,West,278,0.0,1.0,80,0.00,,SKC,0.00,VWS V14.01,2013-01-21 21:26:00,
2013-01-21 16:31:00,31.8,26.6,29.90,West,279,0.0,0.0,81,0.00,,SKC,0.00,VWS V14.01,2013-01-21 21:31:00,
2013-01-21 16:36:00,31.6,26.5,29.90,West,279,0.0,1.0,81,0.00,,SKC,0.00,VWS V14.01,2013-01-21 21:36:00,
2013-01-21 16:41:00,31.5,26.4,29.90,West,279,0.0,1.0,81,0.00,,SKC,0.00,VWS V14.01,2013-01-21 21:41:00,
2013-01-21 16:50:00,31.3,26.5,29.90,West,270,0.0,3.0,82,0.00,,SKC,0.00,VWS V14.01,2013-01-21 21:50:00,
2013-01-21 17:00:00,31.2,26.6,29.90,West,270,0.0,4.0,83,0.00,,SKC,0.00,VWS V14.01,2013-01-21 22:00:00,
2013-01-21 17:10:00,30.9,26.6,29.89,West,270,0.0,2.0,84,0.00,,SKC,0.00,VWS V14.01,2013-01-21 22:10:00,
2013-01-21 17:24:00,30.7,26.7,29.89,West,277,0.0,0.0,85,0.00,,SKC,0.00,VWS V14.01,2013-01-21 22:24:00,
2013-01-21 17:29:00,30.7,26.7,29.89,West,277,1.0,1.0,85,0.00,,SKC,0.00,VWS V14.01,2013-01-21 22:29:00,
2013-01-21 17:30:00,30.7,26.7,29.89,West,277,0.0,2.0,85,0.00,,SKC,0.00,VWS V14.01,2013-01-21 22:30:00,
2013-01-21 17:34:00,30.9,27.2,29.89,West,277,2.0,3.0,86,0.00,,SKC,0.00,VWS V14.01,2013-01-21 22:34:00,
2013-01-21 17:39:00,31.0,27.6,29.88,WNW,285,0.0,4.0,87,0.00,,SKC,0.00,VWS V14.01,2013-01-21 22:39:00,
2013-01-21 17:40:00,31.0,27.6,29.88,WNW,287,1.0,4.0,87,0.00,,SKC,0.00,VWS V14.01,2013-01-21 22:40:00,
2013-01-21 17:44:00,31.2,28.1,29.89,WNW,286,0.0,2.0,88,0.00,,SKC,0.00,VWS V14.01,2013-01-21 22:44:00,
2013-01-21 17:50:00,31.2,28.1,29.88,WNW,294,0.0,1.0,88,0.00,,SKC,0.00,VWS V14.01,2013-01-21 22:50:00,
2013-01-21 17:55:00,31.2,28.3,29.88,WNW,294,0.0,1.0,89,0.00,,SKC,0.00,VWS V14.01,2013-01-21 22:55:00,
2013-01-21 18:00:00,31.2,28.3,29.88,WNW,286,0.0,2.0,89,0.00,,SKC,0.00,VWS V14.01,2013-01-21 23:00:00,
2013-01-21 18:05:00,31.2,28.3,29.88,WNW,285,0.0,0.0,89,0.00,,SKC,0.00,VWS V14.01,2013-01-21 23:05:00,
2013-01-21 18:10:00,31.2,28.6,29.88,WNW,285,0.0,1.0,90,0.00,,SKC,0.00,VWS V14.01,2013-01-21 23:10:00,
2013-01-21 18:15:00,31.2,28.6,29.89,WNW,285,0.0,2.0,90,0.00,,SKC,0.00,VWS V14.01,2013-01-21 23:15:00,
2013-01-21 18:20:00,31.2,28.6,29.88,WNW,285,0.0,2.0,90,0.00,,SKC,0.00,VWS V14.01,2013-01-21 23:20:00,
2013-01-21 18:25:00,31.2,28.6,29.88,WNW,285,0.0,3.0,90,0.00,,SKC,0.00,VWS V14.01,2013-01-21 23:25:00,
2013-01-21 18:30:00,31.0,28.7,29.88,WNW,285,0.0,3.0,91,0.00,,SKC,0.00,VWS V14.01,2013-01-21 23:30:00,
2013-01-21 18:35:00,31.0,28.7,29.88,WNW,285,0.0,0.0,91,0.00,,SKC,0.00,VWS V14.01,2013-01-21 23:35:00,
2013-01-21 18:40:00,30.9,28.6,29.88,WNW,285,0.0,1.0,91,0.00,,SKC,0.00,VWS V14.01,2013-01-21 23:40:00,
2013-01-21 18:45:00,30.9,28.6,29.88,WNW,285,0.0,0.0,91,0.00,,SKC,0.00,VWS V14.01,2013-01-21 23:45:00,
2013-01-21 18:50:00,30.9,28.6,29.87,WNW,285,0.0,0.0,91,0.00,,SKC,0.00,VWS V14.01,2013-01-21 23:50:00,
2013-01-21 18:55:00,30.7,28.7,29.87,WNW,285,0.0,0.0,92,0.00,,SKC,0.00,VWS V14.01,2013-01-21 23:55:00,
2013-01-21 19:00:00,30.7,28.7,29.86,WNW,285,0.0,3.0,92,0.00,,SKC,0.00,VWS V14.01,2013-01-22 00:00:00,
2013-01-21 19:01:00,30.7,28.7,29.86,WNW,285,0.0,0.0,92,0.00,,SKC,0.00,VWS V14.01,2013-01-22 00:01:00,
2013-01-21 19:06:00,30.7,28.7,29.86,WNW,285,0.0,0.0,92,0.00,,SKC,0.00,VWS V14.01,2013-01-22 00:06:00,
2013-01-21 19:10:00,30.6,28.6,29.86,WNW,285,0.0,0.0,92,0.00,,SKC,0.00,VWS V14.01,2013-01-22 00:10:00,
2013-01-21 19:11:00,30.6,28.6,29.86,WNW,285,0.0,0.0,92,0.00,,SKC,0.00,VWS V14.01,2013-01-22 00:11:00,
2013-01-21 19:16:00,30.4,28.4,29.86,WNW,285,0.0,0.0,92,0.00,,SKC,0.00,VWS V14.01,2013-01-22 00:16:00,
2013-01-21 19:20:00,30.4,28.4,29.87,WNW,285,0.0,0.0,92,0.00,,SKC,0.00,VWS V14.01,2013-01-22 00:20:00,
2013-01-21 19:21:00,30.4,28.4,29.87,WNW,285,0.0,0.0,92,0.00,,SKC,0.00,VWS V14.01,2013-01-22 00:21:00,
2013-01-21 19:26:00,30.3,28.3,29.87,WNW,285,0.0,0.0,92,0.00,,SKC,0.00,VWS V14.01,2013-01-22 00:26:00,
2013-01-21 19:30:00,30.3,28.5,29.87,WNW,285,0.0,0.0,93,0.00,,SKC,0.00,VWS V14.01,2013-01-22 00:30:00,
2013-01-21 19:31:00,30.3,28.5,29.87,WNW,285,0.0,0.0,93,0.00,,SKC,0.00,VWS V14.01,2013-01-22 00:31:00,
2013-01-21 19:36:00,30.3,28.5,29.86,WNW,285,0.0,0.0,93,0.00,,SKC,0.00,VWS V14.01,2013-01-22 00:36:00,
2013-01-21 19:40:00,30.1,28.3,29.86,WNW,285,0.0,0.0,93,0.00,,SKC,0.00,VWS V14.01,2013-01-22 00:40:00,
2013-01-21 19:41:00,30.1,28.3,29.86,WNW,285,0.0,0.0,93,0.00,,SKC,0.00,VWS V14.01,2013-01-22 00:41:00,
2013-01-21 19:46:00,30.1,28.3,29.86,WNW,285,0.0,0.0,93,0.00,,SKC,0.00,VWS V14.01,2013-01-22 00:46:00,
2013-01-21 19:50:00,30.1,28.3,29.85,WNW,285,0.0,0.0,93,0.00,,SKC,0.00,VWS V14.01,2013-01-22 00:50:00,
2013-01-21 19:51:00,30.1,28.3,29.85,WNW,285,0.0,0.0,93,0.00,,SKC,0.00,VWS V14.01,2013-01-22 00:51:00,
2013-01-21 19:56:00,30.1,28.3,29.84,WNW,285,0.0,0.0,93,0.00,,SKC,0.00,VWS V14.01,2013-01-22 00:56:00,
2013-01-21 20:00:00,30.1,28.3,29.84,WNW,285,0.0,0.0,93,0.00,,SKC,0.00,VWS V14.01,2013-01-22 01:00:00,
2013-01-21 20:01:00,30.1,28.3,29.84,WNW,285,0.0,0.0,93,0.00,,SKC,0.00,VWS V14.01,2013-01-22 01:01:00,
2013-01-21 20:06:00,30.0,28.5,29.84,WNW,285,0.0,0.0,94,0.00,,SKC,0.00,VWS V14.01,2013-01-22 01:06:00,
2013-01-21 20:10:00,30.0,28.5,29.84,WNW,285,0.0,0.0,94,0.00,,SKC,0.00,VWS V14.01,2013-01-22 01:10:00,
2013-01-21 20:11:00,30.0,28.5,29.83,WNW,285,0.0,0.0,94,0.00,,SKC,0.00,VWS V14.01,2013-01-22 01:11:00,
2013-01-21 20:17:00,30.0,28.5,29.83,WNW,285,0.0,0.0,94,0.00,,SKC,0.00,VWS V14.01,2013-01-22 01:17:00,
2013-01-21 20:20:00,29.8,28.3,29.83,WNW,285,0.0,0.0,94,0.00,,SKC,0.00,VWS V14.01,2013-01-22 01:20:00,
2013-01-21 20:22:00,29.8,28.3,29.83,WNW,285,0.0,0.0,94,0.00,,SKC,0.00,VWS V14.01,2013-01-22 01:22:00,
2013-01-21 20:27:00,29.8,28.3,29.82,WNW,285,0.0,0.0,94,0.00,,SKC,0.00,VWS V14.01,2013-01-22 01:27:00,
2013-01-21 20:30:00,29.7,28.2,29.82,WNW,285,0.0,0.0,94,0.00,,SKC,0.00,VWS V14.01,2013-01-22 01:30:00,
2013-01-21 20:32:00,29.7,28.2,29.82,WNW,285,0.0,0.0,94,0.00,,SKC,0.00,VWS V14.01,2013-01-22 01:32:00,
2013-01-21 20:37:00,29.7,28.2,29.83,West,272,0.0,1.0,94,0.00,,SKC,0.00,VWS V14.01,2013-01-22 01:37:00,
2013-01-21 20:40:00,29.5,28.0,29.83,West,272,0.0,1.0,94,0.00,,SKC,0.00,VWS V14.01,2013-01-22 01:40:00,
2013-01-21 20:42:00,29.5,28.0,29.83,West,272,0.0,0.0,94,0.00,,SKC,0.00,VWS V14.01,2013-01-22 01:42:00,
2013-01-21 20:47:00,29.5,28.2,29.83,West,272,0.0,0.0,95,0.00,,SKC,0.00,VWS V14.01,2013-01-22 01:47:00,
2013-01-21 20:50:00,29.5,28.2,29.83,West,272,0.0,0.0,95,0.00,,SKC,0.00,VWS V14.01,2013-01-22 01:50:00,
2013-01-21 20:52:00,29.5,28.2,29.83,West,272,0.0,0.0,95,0.00,,SKC,0.00,VWS V14.01,2013-01-22 01:52:00,
2013-01-21 20:57:00,29.5,28.2,29.82,West,272,0.0,0.0,95,0.00,,SKC,0.00,VWS V14.01,2013-01-22 01:57:00,
2013-01-21 21:00:00,29.5,28.2,29.82,West,272,0.0,0.0,95,0.00,,SKC,0.00,VWS V14.01,2013-01-22 02:00:00,
2013-01-21 21:02:00,29.5,28.2,29.82,West,272,0.0,0.0,95,0.00,,SKC,0.00,VWS V14.01,2013-01-22 02:02:00,
2013-01-21 21:07:00,29.5,28.2,29.82,West,272,0.0,3.0,95,0.00,,SKC,0.00,VWS V14.01,2013-01-22 02:07:00,
2013-01-21 21:10:00,29.5,28.2,29.81,West,270,0.0,3.0,95,0.00,,SKC,0.00,VWS V14.01,2013-01-22 02:10:00,
2013-01-21 21:17:00,29.5,28.2,29.81,West,270,0.0,0.0,95,0.00,,SKC,0.00,VWS V14.01,2013-01-22 02:17:00,
2013-01-21 21:23:00,29.5,28.2,29.82,SW,234,0.0,0.0,95,0.00,,SKC,0.00,VWS V14.01,2013-01-22 02:23:00,
2013-01-21 21:29:00,29.5,28.5,29.82,SSW,211,0.0,1.0,96,0.00,,SKC,0.00,VWS V14.01,2013-01-22 02:29:00,
2013-01-21 21:34:00,29.5,28.5,29.82,SW,217,0.0,2.0,96,0.00,,SKC,0.00,VWS V14.01,2013-01-22 02:34:00,
2013-01-21 21:39:00,29.5,28.5,29.82,WSW,240,0.0,2.0,96,0.00,,SKC,0.00,VWS V14.01,2013-01-22 02:39:00,
2013-01-21 21:44:00,29.4,28.4,29.82,NW,326,0.0,3.0,96,0.00,,SKC,0.00,VWS V14.01,2013-01-22 02:44:00,
2013-01-21 21:49:00,29.4,28.4,29.82,NW,322,0.0,3.0,96,0.00,,SKC,0.00,VWS V14.01,2013-01-22 02:49:00,
2013-01-21 21:54:00,29.1,28.1,29.82,WSW,257,0.0,0.0,96,0.00,,SKC,0.00,VWS V14.01,2013-01-22 02:54:00,
2013-01-21 21:59:00,29.0,28.0,29.82,SW,225,0.0,0.0,96,0.00,,SKC,0.00,VWS V14.01,2013-01-22 02:59:00,
2013-01-21 22:04:00,28.7,27.7,29.81,WSW,240,0.0,0.0,96,0.00,,SKC,0.00,VWS V14.01,2013-01-22 03:04:00,
2013-01-21 22:10:00,28.5,27.5,29.81,WSW,239,0.0,0.0,96,0.00,,SKC,0.00,VWS V14.01,2013-01-22 03:10:00,
2013-01-21 22:15:00,28.4,27.4,29.82,WSW,242,0.0,0.0,96,0.00,,SKC,0.00,VWS V14.01,2013-01-22 03:15:00,
2013-01-21 22:20:00,28.2,27.2,29.81,SW,215,0.0,0.0,96,0.00,,SKC,0.00,VWS V14.01,2013-01-22 03:20:00,
2013-01-21 22:25:00,28.2,27.2,29.81,South,172,0.0,0.0,96,0.00,,SKC,0.00,VWS V14.01,2013-01-22 03:25:00,
2013-01-21 22:30:00,28.2,27.2,29.81,SE,137,0.0,0.0,96,0.00,,SKC,0.00,VWS V14.01,2013-01-22 03:30:00,
2013-01-21 22:35:00,28.2,27.5,29.80,SSE,149,0.0,0.0,97,0.00,,SKC,0.00,VWS V14.01,2013-01-22 03:35:00,
2013-01-21 22:41:00,28.1,27.4,29.80,SSE,149,0.0,0.0,97,0.00,,SKC,0.00,VWS V14.01,2013-01-22 03:41:00,
2013-01-21 22:46:00,28.1,27.4,29.80,SSE,149,0.0,0.0,97,0.00,,SKC,0.00,VWS V14.01,2013-01-22 03:46:00,
2013-01-21 22:51:00,28.1,27.4,29.79,SSE,149,0.0,0.0,97,0.00,,SKC,0.00,VWS V14.01,2013-01-22 03:51:00,
2013-01-21 22:56:00,28.1,27.4,29.79,SSE,149,0.0,0.0,97,0.00,,SKC,0.00,VWS V14.01,2013-01-22 03:56:00,
2013-01-21 23:01:00,28.1,27.4,29.79,SSE,149,0.0,0.0,97,0.00,,SKC,0.00,VWS V14.01,2013-01-22 04:01:00,
2013-01-21 23:06:00,28.1,27.4,29.80,SSE,150,0.0,0.0,97,0.00,,SKC,0.00,VWS V14.01,2013-01-22 04:06:00,
2013-01-21 23:12:00,27.9,27.2,29.79,South,181,0.0,0.0,97,0.00,,SKC,0.00,VWS V14.01,2013-01-22 04:12:00,
2013-01-21 23:17:00,27.9,27.2,29.79,SSE,156,0.0,0.0,97,0.00,,SKC,0.00,VWS V14.01,2013-01-22 04:17:00,
2013-01-21 23:22:00,27.8,27.1,29.78,SSW,199,0.0,0.0,97,0.00,,SKC,0.00,VWS V14.01,2013-01-22 04:22:00,
2013-01-21 23:27:00,27.6,26.9,29.78,SSW,204,0.0,0.0,97,0.00,,SKC,0.00,VWS V14.01,2013-01-22 04:27:00,
2013-01-21 23:32:00,27.6,26.9,29.78,SSE,150,0.0,0.0,97,0.00,,SKC,0.00,VWS V14.01,2013-01-22 04:32:00,
2013-01-21 23:37:00,27.5,26.8,29.78,SE,142,0.0,0.0,97,0.00,,SKC,0.00,VWS V14.01,2013-01-22 04:37:00,
2013-01-21 23:43:00,27.5,26.8,29.78,SSE,157,0.0,0.0,97,0.00,,SKC,0.00,VWS V14.01,2013-01-22 04:43:00,
2013-01-21 23:48:00,27.5,26.8,29.78,SSE,155,0.0,0.0,97,0.00,,SKC,0.00,VWS V14.01,2013-01-22 04:48:00,
2013-01-21 23:53:00,27.3,26.6,29.77,SSE,160,0.0,0.0,97,0.00,,SKC,0.00,VWS V14.01,2013-01-22 04:53:00,
2013-01-21 23:58:00,27.3,26.6,29.77,SSE,160,0.0,0.0,97,0.00,,SKC,0.00,VWS V14.01,2013-01-22 04:58:00,